Time;durP1;ratioP1;P1;durP2;ratioP2;P2;SDS_P1;SDS_P2;PMS_P1;PMS_P2;Temp;Humidity;BMP_temperature;BMP_pressure;BME280_temperature;BME280_humidity;BME280_pressure;Samples;Min_cycle;Max_cycle;Signal;HPM_P1;HPM_P2
2022/04/06 00:02:22;;;;;;;1.90;1.80;;;18.90;41.10;;;;;;6190246;23;20638;-69
2022/04/06 00:04:49;;;;;;;2.05;1.85;;;18.80;41.10;;;;;;6190488;23;20270;-69
2022/04/06 00:07:16;;;;;;;1.90;1.80;;;18.80;41.10;;;;;;6190320;23;20206;-69
2022/04/06 00:09:44;;;;;;;1.98;1.88;;;18.80;41.10;;;;;;6190051;23;20171;-69
2022/04/06 00:12:11;;;;;;;1.85;1.75;;;18.80;41.10;;;;;;6189673;23;20644;-69
2022/04/06 00:14:39;;;;;;;1.73;1.63;;;18.80;41.20;;;;;;6189477;23;20195;-68
2022/04/06 00:17:07;;;;;;;1.65;1.55;;;18.80;41.20;;;;;;6189750;23;20561;-69
2022/04/06 00:19:36;;;;;;;1.65;1.55;;;18.80;41.30;;;;;;6189634;23;20179;-67
2022/04/06 00:22:04;;;;;;;1.80;1.70;;;18.80;41.40;;;;;;6189428;23;20523;-69
2022/04/06 00:24:31;;;;;;;1.95;1.70;;;18.70;41.40;;;;;;6189809;23;20199;-69
2022/04/06 00:26:58;;;;;;;2.45;1.70;;;18.70;41.40;;;;;;6216763;23;20242;-69
2022/04/06 00:29:25;;;;;;;1.80;1.70;;;18.70;41.40;;;;;;6189922;23;20182;-69
2022/04/06 00:31:51;;;;;;;1.73;1.63;;;18.70;41.40;;;;;;6189502;23;20179;-69
2022/04/06 00:34:19;;;;;;;1.80;1.70;;;18.70;41.40;;;;;;6216007;23;20198;-69
2022/04/06 00:36:47;;;;;;;2.97;1.63;;;18.70;41.50;;;;;;6189765;23;20175;-69
2022/04/06 00:39:15;;;;;;;1.63;1.52;;;18.70;41.50;;;;;;6189316;23;20548;-70
2022/04/06 00:41:42;;;;;;;1.90;1.80;;;18.60;41.40;;;;;;6189304;23;20176;-69
2022/04/06 00:44:13;;;;;;;1.98;1.80;;;18.70;41.50;;;;;;6189200;23;20478;-69
2022/04/06 00:46:40;;;;;;;1.88;1.77;;;18.60;41.60;;;;;;6189474;23;20171;-69
2022/04/06 00:49:11;;;;;;;1.98;1.80;;;18.60;41.60;;;;;;6189256;23;20518;-69
2022/04/06 00:51:39;;;;;;;1.70;1.60;;;18.60;41.60;;;;;;6190292;23;20251;-69
2022/04/06 00:54:08;;;;;;;1.70;1.60;;;18.60;41.60;;;;;;6189149;23;20249;-69
2022/04/06 00:56:35;;;;;;;1.92;1.77;;;18.60;41.60;;;;;;6189325;23;20176;-69
2022/04/06 00:59:03;;;;;;;2.25;1.95;;;18.60;41.70;;;;;;6189134;23;20229;-69
2022/04/06 01:01:30;;;;;;;2.50;1.75;;;18.60;41.70;;;;;;6189186;23;20176;-69
2022/04/06 01:03:57;;;;;;;1.80;1.70;;;18.60;41.70;;;;;;6189086;23;20187;-69
2022/04/06 01:06:23;;;;;;;1.98;1.88;;;18.60;41.80;;;;;;6189087;23;20186;-69
2022/04/06 01:08:52;;;;;;;1.80;1.67;;;18.60;41.80;;;;;;6190520;23;20175;-69
2022/04/06 01:11:20;;;;;;;1.70;1.60;;;18.50;41.80;;;;;;6189602;23;20168;-69
2022/04/06 01:13:47;;;;;;;1.70;1.60;;;18.50;41.80;;;;;;6189520;23;20214;-68
2022/04/06 01:16:15;;;;;;;1.77;1.67;;;18.60;41.80;;;;;;6189260;23;20559;-68
2022/04/06 01:18:42;;;;;;;2.10;1.90;;;18.50;41.80;;;;;;6189634;23;20179;-69
2022/04/06 01:21:11;;;;;;;2.50;1.77;;;18.50;41.80;;;;;;6189109;23;20225;-69
2022/04/06 01:23:41;;;;;;;1.85;1.63;;;18.50;41.90;;;;;;6188845;23;20214;-69
2022/04/06 01:26:08;;;;;;;2.20;2.00;;;18.50;41.90;;;;;;6189090;23;20180;-69
2022/04/06 01:28:35;;;;;;;1.75;1.65;;;18.50;41.90;;;;;;6189187;23;20195;-69
2022/04/06 01:31:03;;;;;;;1.80;1.70;;;18.50;41.90;;;;;;6189149;23;20172;-69
2022/04/06 01:33:31;;;;;;;1.83;1.70;;;18.50;41.90;;;;;;6188950;23;20536;-69
2022/04/06 01:35:58;;;;;;;1.85;1.75;;;18.50;41.90;;;;;;6215442;23;20242;-69
2022/04/06 01:38:26;;;;;;;1.88;1.77;;;18.50;42.00;;;;;;6189018;23;20246;-69
2022/04/06 01:40:54;;;;;;;1.90;1.70;;;18.40;41.90;;;;;;6188820;23;20175;-69
2022/04/06 01:43:22;;;;;;;1.98;1.83;;;18.50;41.90;;;;;;6215850;23;20186;-69
2022/04/06 01:45:49;;;;;;;1.70;1.60;;;18.40;42.00;;;;;;6188864;23;20222;-69
2022/04/06 01:48:16;;;;;;;1.63;1.52;;;18.40;42.00;;;;;;6188821;23;20178;-69
2022/04/06 01:53:28;;;;;;;1.73;1.63;;;18.40;41.90;;;;;;6191006;23;20206;-69
2022/04/06 01:55:56;;;;;;;1.80;1.70;;;18.40;42.00;;;;;;6191104;23;20174;-70
2022/04/06 01:58:24;;;;;;;1.58;1.50;;;18.40;41.90;;;;;;6190715;23;20218;-69
2022/04/06 02:00:51;;;;;;;1.77;1.67;;;18.40;42.00;;;;;;6191074;23;20171;-69
2022/04/06 02:03:18;;;;;;;1.90;1.77;;;18.40;42.70;;;;;;6190984;23;20172;-69
2022/04/06 02:05:46;;;;;;;1.90;1.80;;;18.40;42.00;;;;;;6220431;23;20246;-71
2022/04/06 02:08:13;;;;;;;1.85;1.75;;;18.40;42.00;;;;;;6197014;23;20199;-69
2022/04/06 02:10:40;;;;;;;1.90;1.80;;;18.40;42.10;;;;;;6190964;23;20201;-69
2022/04/06 02:13:09;;;;;;;1.70;1.60;;;18.30;42.00;;;;;;6190569;23;20524;-69
2022/04/06 02:15:37;;;;;;;1.77;1.67;;;18.30;42.00;;;;;;6190668;23;20458;-69
2022/04/06 02:18:04;;;;;;;1.85;1.70;;;18.30;42.00;;;;;;6190624;23;20171;-69
2022/04/06 02:20:35;;;;;;;1.67;1.58;;;18.30;42.10;;;;;;6190460;23;20182;-68
2022/04/06 02:23:04;;;;;;;1.75;1.65;;;18.30;42.10;;;;;;6207135;22;20290;-69
2022/04/06 02:25:31;;;;;;;1.85;1.75;;;18.30;42.10;;;;;;6186643;23;20193;-69
2022/04/06 02:27:58;;;;;;;1.88;1.77;;;18.30;42.10;;;;;;6185665;23;20504;-68
2022/04/06 02:30:26;;;;;;;1.90;1.80;;;18.30;42.10;;;;;;6187161;23;20616;-69
2022/04/06 02:32:54;;;;;;;2.05;1.95;;;18.30;42.20;;;;;;6187872;22;20172;-66
2022/04/06 02:35:21;;;;;;;1.83;1.73;;;18.30;42.10;;;;;;6217468;23;20167;-69
2022/04/06 02:40:32;;;;;;;1.85;1.75;;;18.20;42.10;;;;;;6247650;22;20505;-49
2022/04/06 02:43:01;;;;;;;1.90;1.80;;;18.20;42.10;;;;;;6220496;23;20182;-50
2022/04/06 02:45:29;;;;;;;1.88;1.70;;;18.30;42.20;;;;;;6231576;23;20234;-50
2022/04/06 02:47:59;;;;;;;2.08;1.70;;;18.20;42.10;;;;;;6227027;22;20195;-73
2022/04/06 02:50:27;;;;;;;1.90;1.80;;;18.20;42.10;;;;;;6225219;23;20177;-73
2022/04/06 02:52:54;;;;;;;1.80;1.70;;;18.20;42.10;;;;;;6252198;23;20163;-73
2022/04/06 02:55:21;;;;;;;1.70;1.60;;;18.20;42.20;;;;;;6223444;23;20195;-74
2022/04/06 02:57:48;;;;;;;2.17;2.00;;;18.20;42.20;;;;;;6248416;23;20167;-73
2022/04/06 03:00:16;;;;;;;1.80;1.70;;;18.20;42.10;;;;;;6193079;23;20167;-73
2022/04/06 03:02:46;;;;;;;2.00;1.90;;;18.20;42.20;;;;;;6192424;23;20234;-73
2022/04/06 03:07:48;;;;;;;1.90;1.80;;;18.20;42.30;;;;;;6157027;23;20275;-48
2022/04/06 03:10:15;;;;;;;2.13;1.60;;;18.30;42.30;;;;;;6156640;23;20167;-48
2022/04/06 03:12:43;;;;;;;2.03;1.80;;;18.20;42.40;;;;;;6156736;23;20172;-49
2022/04/06 03:15:10;;;;;;;2.05;1.85;;;18.20;42.30;;;;;;6130606;23;20204;-49
2022/04/06 03:17:38;;;;;;;1.95;1.75;;;18.20;42.40;;;;;;6130613;23;20231;-49
2022/04/06 03:20:08;;;;;;;2.05;1.90;;;18.20;42.40;;;;;;6155644;23;20589;-70
2022/04/06 03:22:34;;;;;;;1.80;1.70;;;18.20;42.40;;;;;;6190645;23;20631;-70
2022/04/06 03:25:01;;;;;;;2.00;1.88;;;18.20;42.20;;;;;;6189937;23;20171;-70
2022/04/06 03:27:28;;;;;;;1.70;1.60;;;18.20;42.20;;;;;;6189825;23;20171;-71
2022/04/06 03:29:56;;;;;;;1.60;1.50;;;18.20;42.20;;;;;;6175581;23;20192;-69
2022/04/06 03:32:23;;;;;;;1.40;1.40;;;18.20;42.20;;;;;;6160170;23;20510;-70
2022/04/06 03:37:36;;;;;;;1.77;1.67;;;18.20;42.30;;;;;;6074700;23;20190;-66
2022/04/06 03:40:28;;;;;;;1.90;1.80;;;18.20;42.20;;;;;;6099709;23;20213;-66
2022/04/06 03:42:56;;;;;;;2.00;1.70;;;18.20;42.20;;;;;;6099237;23;20186;-67
2022/04/06 03:45:23;;;;;;;1.70;1.60;;;18.20;42.20;;;;;;6099256;23;20166;-68
2022/04/06 03:47:50;;;;;;;1.67;1.58;;;18.30;42.30;;;;;;6099038;23;20168;-67
2022/04/06 03:50:17;;;;;;;2.13;1.90;;;18.30;42.30;;;;;;6096997;23;20241;-67
2022/04/06 03:52:46;;;;;;;2.25;2.05;;;18.30;42.40;;;;;;6098371;23;20727;-66
2022/04/06 03:55:14;;;;;;;1.83;1.73;;;18.30;42.30;;;;;;6098392;23;20182;-66
2022/04/06 03:57:41;;;;;;;1.70;1.60;;;18.30;42.30;;;;;;6088556;23;20212;-64
2022/04/06 04:00:09;;;;;;;1.88;1.77;;;18.30;42.20;;;;;;6158745;23;20212;-63
2022/04/06 04:02:36;;;;;;;2.35;1.80;;;18.30;42.20;;;;;;6183789;23;20164;-66
2022/04/06 04:05:04;;;;;;;2.00;1.65;;;18.30;42.20;;;;;;6216686;23;20586;-67
2022/04/06 04:07:31;;;;;;;2.30;1.67;;;18.30;42.10;;;;;;6216867;23;20174;-66
2022/04/06 04:10:00;;;;;;;1.70;1.60;;;18.30;42.10;;;;;;6188748;23;20272;-63
2022/04/06 04:12:27;;;;;;;1.88;1.70;;;18.30;42.60;;;;;;6215380;23;20648;-63
2022/04/06 04:14:54;;;;;;;1.80;1.70;;;18.30;42.00;;;;;;6185925;23;20522;-63
2022/04/06 04:17:21;;;;;;;1.80;1.70;;;18.30;42.00;;;;;;6185961;23;20160;-63
2022/04/06 04:19:48;;;;;;;1.70;1.60;;;18.30;42.10;;;;;;6186197;23;20160;-63
2022/04/06 04:22:15;;;;;;;3.00;1.73;;;18.30;42.00;;;;;;6159807;23;20220;-63
2022/04/06 04:24:42;;;;;;;1.90;1.80;;;18.40;42.10;;;;;;6185738;23;20219;-63
2022/04/06 04:29:46;;;;;;;1.90;1.80;;;18.40;42.20;;;;;;6223755;22;20665;-67
2022/04/06 04:32:14;;;;;;;1.80;1.70;;;18.40;42.20;;;;;;6189953;23;20247;-67
2022/04/06 04:34:42;;;;;;;2.17;1.90;;;18.50;42.20;;;;;;6160903;23;20200;-67
2022/04/06 04:37:09;;;;;;;2.00;1.88;;;18.50;42.10;;;;;;6186373;23;20243;-66
2022/04/06 04:39:36;;;;;;;2.55;1.88;;;18.50;42.10;;;;;;6186085;23;20234;-66
2022/04/06 04:42:04;;;;;;;1.98;1.88;;;18.50;42.00;;;;;;6159797;23;20201;-66
2022/04/06 04:44:31;;;;;;;1.80;1.70;;;18.50;42.00;;;;;;6159591;23;20288;-66
2022/04/06 04:47:00;;;;;;;2.00;1.85;;;18.50;41.80;;;;;;6159579;23;20183;-67
2022/04/06 04:49:27;;;;;;;2.03;1.92;;;18.50;41.90;;;;;;6159481;23;20176;-67
2022/04/06 04:51:54;;;;;;;1.95;1.85;;;18.60;41.90;;;;;;6185810;23;20238;-66
2022/04/06 04:54:24;;;;;;;2.10;1.85;;;18.60;41.80;;;;;;6186905;23;20248;-67
2022/04/06 04:56:52;;;;;;;2.05;1.95;;;18.60;41.80;;;;;;6160651;23;20207;-67
2022/04/06 04:59:19;;;;;;;2.30;2.10;;;18.60;41.70;;;;;;6185807;23;20638;-66
2022/04/06 05:01:46;;;;;;;2.60;1.92;;;18.60;41.60;;;;;;6159749;23;20179;-66
2022/04/06 05:04:15;;;;;;;2.10;1.90;;;18.70;41.60;;;;;;6165918;23;20204;-64
2022/04/06 05:06:42;;;;;;;2.03;1.90;;;18.70;41.60;;;;;;6200390;23;20203;-71
2022/04/06 05:14:27;;;;;;;2.92;2.10;;;18.80;41.70;;;;;;6221992;22;20209;-81
2022/04/06 05:16:54;;;;;;;3.03;2.20;;;18.80;41.70;;;;;;6222621;23;20181;-81
2022/04/06 05:19:23;;;;;;;1.98;1.83;;;18.80;41.80;;;;;;6223080;23;20201;-81
2022/04/06 05:21:50;;;;;;;2.50;2.28;;;18.80;42.00;;;;;;6218096;23;20192;-82
2022/04/06 05:24:17;;;;;;;3.58;2.00;;;18.90;42.10;;;;;;6192819;23;20206;-81
2022/04/06 05:26:44;;;;;;;2.15;2.00;;;18.90;42.10;;;;;;6220368;22;20635;-72
2022/04/06 05:29:12;;;;;;;2.58;2.00;;;18.90;41.90;;;;;;6218505;23;20171;-71
2022/04/06 05:31:40;;;;;;;1.98;1.88;;;19.00;42.00;;;;;;6218012;23;20175;-71
2022/04/06 05:34:07;;;;;;;2.22;1.98;;;19.00;41.80;;;;;;6231004;23;20222;-72
2022/04/06 05:36:36;;;;;;;2.03;1.90;;;19.00;42.00;;;;;;6217889;23;20258;-72
2022/04/06 05:39:03;;;;;;;2.78;1.90;;;19.00;41.90;;;;;;6218093;23;20182;-72
2022/04/06 05:41:30;;;;;;;3.17;2.25;;;19.00;42.60;;;;;;6215996;23;20210;-72
2022/04/06 05:43:57;;;;;;;2.10;1.90;;;19.10;42.20;;;;;;6218781;23;20171;-72
2022/04/06 05:46:25;;;;;;;2.42;2.10;;;19.20;42.00;;;;;;6220678;23;20172;-72
2022/04/06 05:48:52;;;;;;;3.35;1.90;;;19.10;42.00;;;;;;6220652;23;20178;-73
2022/04/06 05:51:19;;;;;;;2.47;2.28;;;19.20;42.50;;;;;;6201026;23;20183;-72
2022/04/06 05:53:48;;;;;;;2.03;1.92;;;19.20;41.80;;;;;;6188942;23;20180;-72
2022/04/06 05:56:15;;;;;;;2.10;1.88;;;19.20;41.80;;;;;;6214698;23;20206;-63
2022/04/06 05:58:43;;;;;;;2.40;2.20;;;19.20;41.70;;;;;;6190914;23;20195;-63
2022/04/06 06:01:10;;;;;;;2.00;1.90;;;19.20;42.00;;;;;;6190494;23;20513;-62
2022/04/06 06:03:37;;;;;;;2.20;2.00;;;19.20;41.80;;;;;;6174908;23;20535;-62
2022/04/06 06:06:04;;;;;;;1.92;1.83;;;19.20;41.70;;;;;;6187150;23;20165;-63
2022/04/06 06:08:31;;;;;;;2.35;2.13;;;19.30;41.70;;;;;;6173407;23;20238;-67
2022/04/06 06:11:00;;;;;;;2.40;2.20;;;19.20;41.60;;;;;;6190887;23;20168;-67
2022/04/06 06:13:28;;;;;;;2.20;2.00;;;19.20;41.50;;;;;;6185685;23;20196;-67
2022/04/06 06:15:55;;;;;;;2.30;2.10;;;19.20;41.50;;;;;;6204318;22;20198;-68
2022/04/06 06:18:24;;;;;;;2.33;1.98;;;19.30;41.50;;;;;;6221130;23;20507;-68
2022/04/06 06:20:51;;;;;;;2.70;2.50;;;19.30;41.40;;;;;;6220774;23;20225;-68
2022/04/06 06:23:19;;;;;;;2.20;2.10;;;19.30;41.40;;;;;;6220760;23;20513;-67
2022/04/06 06:25:46;;;;;;;2.92;2.00;;;19.30;41.40;;;;;;6218952;22;20201;-71
2022/04/06 06:33:49;;;;;;;2.55;2.08;;;19.40;41.30;;;;;;6240327;22;20202;-63
2022/04/06 06:36:16;;;;;;;2.25;2.03;;;19.40;41.30;;;;;;6247263;23;20225;-63
2022/04/06 06:38:43;;;;;;;2.17;2.03;;;19.40;41.00;;;;;;6247204;22;20505;-63
2022/04/06 06:41:11;;;;;;;2.30;2.10;;;19.40;40.90;;;;;;6220139;23;20522;-63
2022/04/06 06:43:38;;;;;;;2.50;2.30;;;19.40;40.90;;;;;;6204438;23;20210;-63
2022/04/06 06:46:05;;;;;;;2.33;2.13;;;19.40;40.80;;;;;;6230581;22;20219;-73
2022/04/06 06:48:33;;;;;;;2.28;2.08;;;19.40;40.80;;;;;;6223361;23;20615;-73
2022/04/06 06:51:01;;;;;;;2.40;2.20;;;19.50;40.90;;;;;;6224605;23;20174;-73
2022/04/06 06:53:29;;;;;;;2.05;1.95;;;19.50;40.90;;;;;;6250212;22;20166;-73
2022/04/06 06:55:56;;;;;;;2.22;1.92;;;19.50;41.20;;;;;;6211440;23;20265;-73
2022/04/06 06:58:23;;;;;;;2.25;2.03;;;19.50;40.90;;;;;;6193267;23;20167;-73
2022/04/06 07:03:38;;;;;;;2.00;1.90;;;19.60;40.90;;;;;;6186984;23;20199;-68
2022/04/06 07:08:41;;;;;;;1.80;1.70;;;19.60;40.60;;;;;;6217190;23;20664;-50
2022/04/06 07:11:09;;;;;;;2.22;2.10;;;19.60;40.70;;;;;;6216599;23;20171;-50
2022/04/06 07:13:36;;;;;;;2.10;1.90;;;19.60;40.60;;;;;;6216439;23;20242;-50
2022/04/06 07:16:05;;;;;;;2.00;1.80;;;19.60;40.50;;;;;;6167788;23;20202;-50
2022/04/06 07:18:33;;;;;;;2.33;2.13;;;19.60;40.60;;;;;;6186389;23;20172;-50
2022/04/06 07:21:01;;;;;;;1.98;1.77;;;19.60;40.50;;;;;;6162405;22;20176;-67
2022/04/06 07:23:27;;;;;;;2.00;1.85;;;19.60;40.60;;;;;;6191380;23;20250;-67
2022/04/06 07:25:56;;;;;;;1.70;1.60;;;19.70;40.40;;;;;;6191036;23;20180;-67
2022/04/06 07:28:23;;;;;;;1.83;1.73;;;19.70;40.30;;;;;;6190751;23;20177;-68
2022/04/06 07:30:50;;;;;;;1.90;1.80;;;19.70;40.30;;;;;;6212317;23;20718;-66
2022/04/06 07:33:17;;;;;;;2.13;1.70;;;19.80;40.30;;;;;;6186899;23;20164;-67
2022/04/06 07:41:03;;;;;;;1.80;1.65;;;19.80;40.10;;;;;;6216866;23;20182;-53
2022/04/06 07:43:31;;;;;;;1.80;1.70;;;19.80;40.20;;;;;;6216234;23;20218;-54
2022/04/06 07:45:58;;;;;;;2.83;1.92;;;19.80;40.10;;;;;;6169063;23;20199;-53
2022/04/06 07:48:27;;;;;;;1.98;1.80;;;19.90;40.30;;;;;;6159616;23;20172;-53
2022/04/06 07:50:55;;;;;;;2.58;1.50;;;19.90;40.20;;;;;;6186510;23;20182;-54
2022/04/06 07:53:22;;;;;;;1.80;1.52;;;19.90;40.70;;;;;;6159737;23;20196;-52
2022/04/06 07:55:50;;;;;;;1.70;1.60;;;19.90;40.40;;;;;;6188163;23;20196;-63
2022/04/06 07:58:19;;;;;;;1.77;1.50;;;19.90;40.40;;;;;;6210401;23;20164;-63
2022/04/06 08:00:46;;;;;;;1.80;1.70;;;19.90;40.00;;;;;;6209838;23;20183;-63
2022/04/06 08:03:14;;;;;;;1.70;1.60;;;19.90;40.10;;;;;;6175492;23;20221;-63
2022/04/06 08:05:41;;;;;;;1.85;1.73;;;20.00;39.80;;;;;;6155754;23;20196;-63
2022/04/06 08:08:08;;;;;;;1.80;1.70;;;20.00;40.10;;;;;;6157377;23;20562;-62
2022/04/06 08:10:35;;;;;;;1.83;1.70;;;20.10;40.10;;;;;;6157119;23;20223;-63
2022/04/06 08:13:02;;;;;;;1.80;1.70;;;20.10;40.00;;;;;;6155686;23;20193;-63
2022/04/06 08:15:31;;;;;;;1.60;1.50;;;20.20;39.90;;;;;;6183118;23;20295;-66
2022/04/06 08:17:58;;;;;;;1.50;1.40;;;20.20;39.80;;;;;;6184536;23;20560;-66
2022/04/06 08:20:26;;;;;;;1.60;1.50;;;20.20;39.60;;;;;;6184606;23;20176;-66
2022/04/06 08:22:53;;;;;;;1.50;1.40;;;20.20;39.60;;;;;;6179570;23;20216;-67
2022/04/06 08:25:20;;;;;;;1.40;1.38;;;20.20;39.60;;;;;;6156385;23;20184;-66
2022/04/06 08:27:48;;;;;;;1.88;1.60;;;20.20;39.50;;;;;;6154913;23;20584;-66
2022/04/06 08:30:16;;;;;;;1.70;1.60;;;20.20;40.30;;;;;;6154645;23;20176;-66
2022/04/06 08:32:45;;;;;;;1.60;1.50;;;20.20;39.40;;;;;;6156509;23;20189;-66
2022/04/06 08:35:13;;;;;;;1.60;1.50;;;20.20;39.40;;;;;;6154997;23;20181;-67
2022/04/06 08:37:40;;;;;;;1.92;1.70;;;20.20;39.50;;;;;;6154836;23;20179;-67
2022/04/06 08:40:09;;;;;;;1.83;1.73;;;20.20;39.50;;;;;;6155014;23;20274;-67
2022/04/06 08:42:37;;;;;;;1.75;1.65;;;20.30;39.50;;;;;;6155043;23;20169;-67
2022/04/06 08:45:05;;;;;;;1.52;1.42;;;20.30;39.60;;;;;;6154746;23;20686;-67
2022/04/06 08:47:33;;;;;;;1.67;1.58;;;20.20;39.40;;;;;;6154852;23;20181;-67
2022/04/06 08:50:03;;;;;;;1.50;1.40;;;20.30;39.40;;;;;;6154831;23;20259;-66
2022/04/06 08:52:31;;;;;;;1.83;1.73;;;20.30;40.00;;;;;;6154670;23;20248;-66
2022/04/06 08:54:59;;;;;;;1.70;1.60;;;20.30;39.40;;;;;;6156531;23;20219;-67
2022/04/06 08:57:27;;;;;;;1.60;1.50;;;20.30;39.30;;;;;;6156310;23;20574;-67
2022/04/06 08:59:55;;;;;;;1.60;1.50;;;20.40;39.40;;;;;;6154515;23;20172;-67
2022/04/06 09:02:22;;;;;;;1.63;1.52;;;20.40;39.20;;;;;;6155990;23;20165;-67
2022/04/06 09:04:53;;;;;;;1.50;1.40;;;20.40;39.30;;;;;;6154609;23;20232;-67
2022/04/06 09:07:22;;;;;;;1.50;1.30;;;20.40;39.10;;;;;;6154543;23;20169;-67
2022/04/06 09:09:51;;;;;;;1.50;1.40;;;20.50;39.10;;;;;;6154534;23;20255;-67
2022/04/06 09:12:19;;;;;;;1.77;1.67;;;20.50;39.00;;;;;;6154305;23;20215;-66
2022/04/06 09:14:47;;;;;;;1.50;1.40;;;20.60;38.90;;;;;;6154255;23;20220;-66
2022/04/06 09:17:21;;;;;;;1.67;1.40;;;20.60;38.70;;;;;;6154241;23;20215;-66
2022/04/06 09:19:49;;;;;;;1.60;1.50;;;20.60;38.50;;;;;;6154330;23;20176;-67
2022/04/06 09:22:17;;;;;;;1.50;1.40;;;20.80;38.40;;;;;;6154500;23;20179;-66
2022/04/06 09:24:45;;;;;;;1.48;1.40;;;21.00;37.80;;;;;;6156119;23;20189;-67
2022/04/06 09:27:12;;;;;;;1.42;1.33;;;21.20;37.60;;;;;;6155901;23;20165;-66
2022/04/06 09:29:39;;;;;;;1.30;1.20;;;21.20;37.60;;;;;;6154312;23;20204;-66
2022/04/06 09:32:08;;;;;;;1.58;1.48;;;21.30;37.40;;;;;;6155929;23;20620;-67
2022/04/06 09:34:35;;;;;;;1.30;1.30;;;21.40;37.40;;;;;;6154453;23;20591;-67
2022/04/06 09:37:23;;;;;;;1.48;1.38;;;21.50;37.20;;;;;;6154300;23;20275;-66
2022/04/06 09:39:52;;;;;;;1.35;1.25;;;21.50;37.10;;;;;;6156204;23;20157;-66
2022/04/06 09:42:21;;;;;;;1.27;1.27;;;21.60;36.90;;;;;;6154555;23;20176;-67
2022/04/06 09:47:44;;;;;;;1.27;1.27;;;21.60;36.70;;;;;;6156107;23;20172;-67
2022/04/06 09:50:16;;;;;;;1.23;1.23;;;21.60;36.60;;;;;;6155947;23;20476;-66
2022/04/06 09:52:44;;;;;;;1.42;1.33;;;21.70;36.80;;;;;;6155825;23;20635;-66
2022/04/06 09:55:14;;;;;;;1.20;1.20;;;21.70;36.70;;;;;;6154645;23;20556;-66
2022/04/06 09:57:43;;;;;;;1.40;1.33;;;21.60;36.60;;;;;;6155636;23;20181;-67
2022/04/06 10:00:12;;;;;;;1.50;1.40;;;21.60;36.70;;;;;;6154484;23;20180;-66
2022/04/06 10:02:40;;;;;;;1.30;1.20;;;21.60;36.70;;;;;;6154102;23;20232;-67
2022/04/06 10:05:08;;;;;;;1.30;1.20;;;21.70;36.80;;;;;;6155849;23;20555;-67
2022/04/06 10:07:35;;;;;;;1.20;1.13;;;21.70;36.80;;;;;;6154101;23;20224;-66
2022/04/06 10:10:02;;;;;;;1.45;1.30;;;21.70;36.60;;;;;;6154289;23;20169;-67
2022/04/06 10:12:31;;;;;;;1.10;1.10;;;21.70;36.60;;;;;;6155374;23;20662;-66
2022/04/06 10:15:00;;;;;;;1.38;1.27;;;21.80;36.60;;;;;;6157665;23;20177;-66
2022/04/06 10:17:28;;;;;;;1.98;1.48;;;21.80;36.50;;;;;;6156467;23;20276;-66
2022/04/06 10:20:00;;;;;;;1.23;1.20;;;21.80;36.50;;;;;;6176437;22;20583;-69
2022/04/06 10:22:31;;;;;;;1.02;1.02;;;21.80;36.40;;;;;;6219681;23;20165;-71
2022/04/06 10:25:02;;;;;;;1.30;1.20;;;21.80;36.50;;;;;;6170027;23;20206;-71
2022/04/06 10:27:32;;;;;;;1.15;1.15;;;21.80;36.40;;;;;;6162575;23;20160;-72
2022/04/06 10:30:10;;;;;;;1.20;1.20;;;21.80;36.30;;;;;;6163303;23;20190;-71
2022/04/06 10:32:37;;;;;;;1.15;1.10;;;21.90;36.30;;;;;;6163025;23;20186;-71
2022/04/06 10:35:24;;;;;;;1.20;1.20;;;21.90;36.30;;;;;;6162648;23;20194;-71
2022/04/06 10:37:53;;;;;;;1.30;1.30;;;21.90;36.20;;;;;;6162799;23;20196;-70
2022/04/06 10:40:21;;;;;;;1.50;1.30;;;22.00;36.20;;;;;;6162412;23;20183;-70
2022/04/06 10:42:49;;;;;;;1.25;1.25;;;22.00;36.10;;;;;;6162696;23;20164;-71
2022/04/06 10:45:35;;;;;;;1.33;1.33;;;22.00;36.10;;;;;;6162498;23;20192;-71
2022/04/06 10:48:13;;;;;;;1.20;1.20;;;22.20;36.70;;;;;;6188801;23;20620;-71
2022/04/06 10:50:40;;;;;;;1.20;1.20;;;22.30;35.90;;;;;;6162204;23;20164;-71
2022/04/06 10:53:27;;;;;;;1.40;1.30;;;22.30;35.70;;;;;;6162866;23;20243;-71
2022/04/06 10:55:58;;;;;;;1.17;1.17;;;22.40;35.70;;;;;;6162136;23;20206;-71
2022/04/06 10:58:27;;;;;;;1.15;1.15;;;22.40;35.50;;;;;;6163334;23;20255;-72
2022/04/06 11:01:17;;;;;;;1.50;1.40;;;22.50;35.50;;;;;;6188774;23;20164;-71
2022/04/06 11:03:55;;;;;;;1.20;1.20;;;22.50;35.40;;;;;;6162064;23;20207;-71
2022/04/06 11:06:55;;;;;;;1.40;1.30;;;22.50;35.30;;;;;;6188550;23;20589;-71
2022/04/06 11:12:11;;;;;;;1.40;1.33;;;22.60;35.20;;;;;;6162421;23;20303;-71
2022/04/06 11:14:45;;;;;;;1.15;1.15;;;22.60;35.20;;;;;;6162674;23;20192;-72
2022/04/06 11:17:41;;;;;;;1.10;1.10;;;22.60;35.20;;;;;;6162032;23;20187;-71
2022/04/06 11:20:10;;;;;;;1.00;1.00;;;22.60;35.20;;;;;;6162562;23;20180;-71
2022/04/06 11:22:39;;;;;;;1.40;1.30;;;22.50;35.30;;;;;;6161767;23;20517;-71
2022/04/06 11:25:08;;;;;;;1.13;1.13;;;22.60;35.40;;;;;;6162848;23;20652;-71
2022/04/06 11:27:37;;;;;;;1.20;1.20;;;22.50;35.30;;;;;;6162277;23;20173;-71
2022/04/06 11:30:06;;;;;;;1.10;1.10;;;22.50;35.30;;;;;;6162204;23;20263;-72
2022/04/06 11:32:33;;;;;;;1.15;1.15;;;22.50;35.40;;;;;;6162709;23;20682;-72
2022/04/06 11:35:01;;;;;;;1.10;1.10;;;22.50;35.60;;;;;;6163438;23;20215;-72
2022/04/06 11:40:15;;;;;;;1.33;1.23;;;22.50;35.50;;;;;;6217628;22;20226;-72
2022/04/06 11:42:46;;;;;;;1.10;1.10;;;22.50;35.50;;;;;;6173854;23;20577;-72
2022/04/06 11:45:19;;;;;;;1.20;1.20;;;22.50;35.50;;;;;;6186636;23;20216;-72
2022/04/06 11:47:52;;;;;;;1.38;1.30;;;22.50;35.60;;;;;;6157423;23;20157;-72
2022/04/06 11:50:20;;;;;;;1.35;1.10;;;22.50;35.60;;;;;;6157257;23;20196;-72
2022/04/06 11:52:47;;;;;;;1.10;1.10;;;22.50;35.40;;;;;;6157280;23;20176;-72
2022/04/06 11:55:14;;;;;;;1.10;1.00;;;22.50;35.40;;;;;;6157030;23;20196;-73
2022/04/06 11:57:43;;;;;;;1.10;1.10;;;22.50;35.40;;;;;;6157352;23;20196;-72
2022/04/06 12:00:11;;;;;;;1.38;1.27;;;22.50;35.40;;;;;;6157020;23;20173;-73
2022/04/06 12:02:52;;;;;;;1.25;1.23;;;22.50;35.50;;;;;;6156940;23;20251;-72
2022/04/06 12:05:20;;;;;;;1.20;1.20;;;22.50;35.50;;;;;;6157077;23;20597;-72
2022/04/06 12:07:47;;;;;;;1.17;1.17;;;22.50;35.50;;;;;;6156761;23;20175;-72
2022/04/06 12:10:15;;;;;;;1.00;1.00;;;22.50;35.60;;;;;;6157045;23;20248;-73
2022/04/06 12:12:42;;;;;;;1.00;1.00;;;22.50;35.60;;;;;;6158079;23;20223;-73
2022/04/06 12:15:10;;;;;;;1.70;1.30;;;22.50;35.60;;;;;;6157345;23;20199;-73
2022/04/06 12:17:38;;;;;;;0.98;0.98;;;22.50;35.60;;;;;;6157022;23;20537;-73
2022/04/06 12:20:25;;;;;;;1.10;1.10;;;22.50;35.60;;;;;;6158397;23;20169;-72
2022/04/06 12:23:03;;;;;;;1.08;1.08;;;22.50;35.60;;;;;;6156900;23;20231;-72
2022/04/06 12:25:31;;;;;;;1.23;1.13;;;22.50;35.60;;;;;;6156844;23;20259;-72
2022/04/06 12:28:14;;;;;;;1.20;1.10;;;22.50;35.50;;;;;;6158307;23;20179;-72
2022/04/06 12:30:57;;;;;;;1.15;1.15;;;22.50;35.40;;;;;;6156943;23;20612;-73
2022/04/06 12:33:39;;;;;;;1.05;1.05;;;22.50;35.50;;;;;;6161215;22;20183;-71
2022/04/06 12:36:15;;;;;;;1.10;1.10;;;22.50;35.40;;;;;;6179800;22;20260;-70
2022/04/06 12:38:44;;;;;;;1.20;1.20;;;22.50;35.50;;;;;;6176424;23;20667;-72
2022/04/06 12:43:48;;;;;;;1.30;1.20;;;22.60;35.60;;;;;;6186306;23;20305;-72
2022/04/06 12:46:15;;;;;;;1.73;1.20;;;22.70;35.70;;;;;;6188801;23;20191;-72
2022/04/06 12:48:43;;;;;;;1.40;1.30;;;22.70;35.70;;;;;;6187683;23;20172;-72
2022/04/06 12:51:24;;;;;;;1.38;1.10;;;22.70;35.80;;;;;;6187434;23;20178;-72
2022/04/06 12:53:52;;;;;;;1.80;1.52;;;22.80;35.90;;;;;;6179962;23;20188;-71
2022/04/06 12:56:23;;;;;;;1.67;1.20;;;22.80;35.80;;;;;;6156665;23;20177;-72
2022/04/06 12:59:09;;;;;;;1.00;1.00;;;22.80;35.80;;;;;;6157351;23;20177;-72
2022/04/06 13:01:44;;;;;;;1.00;1.00;;;22.70;35.30;;;;;;6156731;23;20169;-72
2022/04/06 13:04:12;;;;;;;1.13;1.08;;;22.70;35.20;;;;;;6157197;23;20231;-72
2022/04/06 13:06:41;;;;;;;1.45;1.10;;;22.70;36.10;;;;;;6174830;23;20208;-72
2022/04/06 13:09:12;;;;;;;1.23;1.00;;;22.70;35.60;;;;;;6187028;23;20628;-71
2022/04/06 13:11:39;;;;;;;1.00;1.00;;;22.70;35.70;;;;;;6187924;23;20223;-72
2022/04/06 13:14:06;;;;;;;0.80;0.80;;;22.70;35.70;;;;;;6187243;23;20262;-72
2022/04/06 13:16:34;;;;;;;1.15;1.15;;;22.70;36.20;;;;;;6170291;23;20538;-72
2022/04/06 13:19:02;;;;;;;1.05;1.05;;;22.70;35.60;;;;;;6157641;23;20267;-72
2022/04/06 13:21:33;;;;;;;1.10;1.00;;;22.70;35.50;;;;;;6172674;23;20287;-67
2022/04/06 13:29:53;;;;;;;1.33;1.05;;;22.80;35.40;;;;;;6216620;23;20203;-67
2022/04/06 13:38:26;;;;;;;1.15;1.15;;;22.70;35.50;;;;;;6133048;23;20279;-72
2022/04/06 13:40:54;;;;;;;1.10;1.00;;;22.70;35.70;;;;;;6132239;23;20173;-72
2022/04/06 13:43:21;;;;;;;1.20;1.10;;;22.70;36.30;;;;;;6132538;23;20177;-72
2022/04/06 13:45:50;;;;;;;0.90;0.90;;;22.70;35.60;;;;;;6134235;23;20204;-73
2022/04/06 13:48:18;;;;;;;1.15;1.10;;;22.70;35.70;;;;;;6164698;23;20172;-72
2022/04/06 13:53:21;;;;;;;1.10;0.95;;;22.70;35.80;;;;;;6217972;23;20245;-63
2022/04/06 13:55:49;;;;;;;0.90;0.90;;;22.70;35.80;;;;;;6191094;23;20179;-63
2022/04/06 13:58:16;;;;;;;0.93;0.93;;;22.70;35.70;;;;;;6217304;23;20211;-63